Time;durP1;ratioP1;P1;durP2;ratioP2;P2;SDS_P1;SDS_P2;PMS_P1;PMS_P2;Temp;Humidity;BMP_temperature;BMP_pressure;BME280_temperature;BME280_humidity;BME280_pressure;Samples;Min_cycle;Max_cycle;Signal;HPM_P1;HPM_P2
2022/11/06 00:01:32;;;;;;;12.15;7.30;;;4.30;99.90;;;3.49;100.00;97643.25;4960890;28;20054;-49
2022/11/06 00:03:58;;;;;;;9.02;6.80;;;4.30;99.90;;;3.48;100.00;97642.34;4966941;28;20029;-46
2022/11/06 00:09:12;;;;;;;11.98;7.47;;;4.30;99.90;;;3.53;100.00;97630.16;4967086;28;20045;-46
2022/11/06 00:11:41;;;;;;;9.25;6.68;;;4.30;99.90;;;3.37;100.00;97602.44;4964048;28;20117;-49
2022/11/06 00:14:07;;;;;;;9.80;7.53;;;4.30;99.90;;;3.56;100.00;97624.06;4965157;28;20027;-51
2022/11/06 00:16:33;;;;;;;13.55;7.53;;;4.30;99.90;;;3.58;100.00;97620.56;4964925;28;20043;-48
2022/11/06 00:19:00;;;;;;;10.95;6.72;;;4.40;99.90;;;3.59;100.00;97621.47;4959164;28;20084;-48
2022/11/06 00:21:28;;;;;;;9.77;7.00;;;4.40;99.90;;;3.60;100.00;97617.97;4964823;28;20190;-46
2022/11/06 00:23:57;;;;;;;10.80;7.82;;;4.40;99.90;;;3.61;100.00;97617.97;4960946;28;20361;-47
2022/11/06 00:26:26;;;;;;;14.02;9.55;;;4.40;99.90;;;3.61;100.00;97612.75;4961411;28;20120;-46
2022/11/06 00:28:52;;;;;;;15.35;9.82;;;4.40;99.90;;;3.65;100.00;97623.16;4968451;28;20030;-46
2022/11/06 00:31:24;;;;;;;12.73;9.07;;;4.40;99.90;;;3.64;100.00;97632.72;4962691;28;20077;-48
2022/11/06 00:33:52;;;;;;;14.63;8.68;;;4.40;99.90;;;3.60;100.00;97631.84;4954226;28;20178;-46
2022/11/06 00:36:21;;;;;;;15.57;8.90;;;4.40;99.90;;;3.57;100.00;97629.28;4931682;28;20078;-48
2022/11/06 00:38:52;;;;;;;11.57;8.60;;;4.30;99.90;;;3.51;100.00;97634.50;4958615;28;20054;-48
2022/11/06 00:41:18;;;;;;;13.90;8.85;;;4.30;99.90;;;3.41;100.00;97630.22;4951717;28;20043;-46
2022/11/06 00:43:57;;;;;;;12.55;9.07;;;4.30;99.90;;;3.37;100.00;97631.97;4961771;28;20104;-49
2022/11/06 00:46:23;;;;;;;13.82;8.55;;;4.20;99.90;;;3.39;100.00;97631.97;4962383;28;20031;-50
2022/11/06 00:48:51;;;;;;;11.20;7.78;;;4.20;99.90;;;3.36;100.00;97645.91;4964924;28;20086;-47
2022/11/06 00:51:23;;;;;;;13.15;8.93;;;4.20;99.90;;;3.35;100.00;97646.75;4966556;28;20035;-46
2022/11/06 00:53:57;;;;;;;13.13;8.43;;;4.20;99.90;;;3.36;100.00;97650.25;4962318;28;20034;-51
2022/11/06 00:56:24;;;;;;;12.07;9.00;;;4.20;99.90;;;3.35;100.00;97651.97;4966195;28;20034;-45
2022/11/06 00:58:50;;;;;;;12.55;8.60;;;4.10;99.90;;;3.35;100.00;97646.75;4961996;28;20039;-49
2022/11/06 01:01:22;;;;;;;13.63;9.00;;;4.10;99.90;;;3.35;100.00;97640.69;4966959;28;20061;-50
2022/11/06 01:03:53;;;;;;;17.45;9.38;;;4.10;99.90;;;3.34;100.00;97633.72;4965768;28;20034;-46
2022/11/06 01:06:24;;;;;;;14.77;10.18;;;4.20;99.90;;;3.36;100.00;97637.22;4968063;28;20114;-48
2022/11/06 01:08:51;;;;;;;15.32;9.00;;;4.20;99.90;;;3.35;100.00;97632.88;4959087;28;20121;-47
2022/11/06 01:11:28;;;;;;;18.00;9.88;;;4.20;99.90;;;3.32;100.00;97636.38;4969965;28;20042;-46
2022/11/06 01:13:56;;;;;;;15.20;9.50;;;4.20;99.90;;;3.28;100.00;97638.97;4957998;28;20542;-49
2022/11/06 01:16:23;;;;;;;16.25;9.15;;;4.10;99.90;;;3.25;100.00;97639.88;4966862;28;20049;-47
2022/11/06 01:18:50;;;;;;;13.05;8.70;;;4.00;99.90;;;3.21;100.00;97630.31;4966216;28;20937;-48
2022/11/06 01:21:28;;;;;;;13.15;9.13;;;4.00;99.90;;;3.14;100.00;97639.91;4961740;28;20163;-50
2022/11/06 01:23:57;;;;;;;11.65;8.65;;;3.90;99.90;;;3.13;100.00;97634.69;4952457;28;20046;-50
2022/11/06 01:26:24;;;;;;;12.27;8.77;;;3.90;99.90;;;3.04;100.00;97626.03;4968094;28;20035;-49
2022/11/06 01:28:50;;;;;;;10.75;7.93;;;3.90;99.90;;;2.98;100.00;97619.97;4962705;28;20049;-45
2022/11/06 01:31:20;;;;;;;12.02;9.13;;;3.80;99.90;;;3.00;100.00;97628.66;4964235;28;20495;-48
2022/11/06 01:33:47;;;;;;;11.05;9.02;;;3.80;99.90;;;2.98;100.00;97640.81;4958614;28;20578;-46
2022/11/06 01:36:15;;;;;;;10.77;8.43;;;3.80;99.90;;;2.95;100.00;97639.09;4962424;28;20113;-48
2022/11/06 01:38:43;;;;;;;13.98;8.80;;;3.70;99.90;;;2.93;100.00;97640.84;4967442;28;20411;-48
2022/11/06 01:41:13;;;;;;;12.23;8.65;;;3.70;99.90;;;2.92;100.00;97640.84;4959663;28;20383;-48
2022/11/06 01:43:54;;;;;;;11.38;8.35;;;3.70;99.90;;;2.89;100.00;97638.22;4965471;28;20168;-47
2022/11/06 01:46:24;;;;;;;12.63;8.90;;;3.70;99.90;;;2.87;100.00;97635.63;4961482;28;20039;-47
2022/11/06 01:49:01;;;;;;;16.90;9.80;;;3.70;99.90;;;2.82;100.00;97635.66;4979156;28;20550;-46
2022/11/06 01:51:33;;;;;;;16.40;9.45;;;3.70;99.90;;;2.82;100.00;97635.66;4949460;28;20369;-47
2022/11/06 01:53:59;;;;;;;15.23;8.45;;;3.60;99.90;;;2.79;100.00;97625.25;4963028;28;20038;-48
2022/11/06 01:56:25;;;;;;;14.13;9.15;;;3.60;99.90;;;2.78;100.00;97628.72;4963107;28;20052;-47
2022/11/06 01:58:53;;;;;;;15.02;9.23;;;3.60;99.90;;;2.76;100.00;97629.59;4959893;28;20034;-47
2022/11/06 02:01:19;;;;;;;14.70;9.23;;;3.60;99.90;;;2.74;100.00;97621.78;4961209;28;20066;-48
2022/11/06 02:04:15;;;;;;;14.68;9.07;;;3.60;99.90;;;2.68;100.00;97622.66;4966189;28;20173;-48
2022/11/06 02:06:40;;;;;;;13.63;9.18;;;3.50;99.90;;;2.69;100.00;97618.31;4956158;28;20034;-50
2022/11/06 02:09:10;;;;;;;13.48;8.50;;;3.50;99.90;;;2.61;100.00;97612.25;4966868;28;20613;-47
2022/11/06 02:11:38;;;;;;;12.52;8.70;;;3.50;99.90;;;2.61;100.00;97620.94;4970018;28;20031;-50
2022/11/06 02:14:39;;;;;;;15.15;9.68;;;3.50;99.90;;;2.46;100.00;97589.72;4975394;28;20035;-47
2022/11/06 02:17:29;;;;;;;14.88;10.15;;;3.50;99.90;;;2.45;100.00;97588.84;4962159;28;20552;-49
2022/11/06 02:20:31;;;;;;;13.48;9.30;;;3.50;99.90;;;2.59;100.00;97612.25;4963792;28;20043;-48
2022/11/06 02:23:54;;;;;;;16.98;10.15;;;3.50;99.90;;;2.61;100.00;97620.06;4967123;28;20034;-46
2022/11/06 02:26:44;;;;;;;13.85;8.82;;;3.50;99.90;;;2.60;100.00;97619.22;4957371;28;20047;-47
2022/11/06 02:29:20;;;;;;;12.88;9.05;;;3.50;99.90;;;2.59;100.00;97606.19;4965508;28;20045;-48
2022/11/06 02:31:49;;;;;;;13.35;8.95;;;3.50;99.90;;;2.59;100.00;97607.06;4955853;28;20037;-48
2022/11/06 02:34:21;;;;;;;12.27;9.07;;;3.40;99.90;;;2.58;100.00;97601.84;4962807;28;20589;-48
2022/11/06 02:36:57;;;;;;;12.60;8.70;;;3.40;99.90;;;2.55;100.00;97599.25;4960401;28;20131;-49
2022/11/06 02:39:26;;;;;;;14.45;8.90;;;3.40;99.90;;;2.52;100.00;97594.91;4967964;28;20062;-45
2022/11/06 02:41:53;;;;;;;12.85;8.73;;;3.30;99.90;;;2.52;100.00;97588.84;4976044;28;20039;-47
2022/11/06 02:44:23;;;;;;;13.98;8.93;;;3.40;99.90;;;2.47;100.00;97587.09;4965432;28;20039;-47
2022/11/06 02:46:54;;;;;;;15.65;8.95;;;3.30;99.90;;;2.50;100.00;97580.19;4959732;28;21315;-46
2022/11/06 02:49:29;;;;;;;13.23;8.75;;;3.30;99.90;;;2.45;100.00;97567.16;4975215;28;20039;-45
2022/11/06 02:52:04;;;;;;;13.75;8.90;;;3.30;99.90;;;2.43;100.00;97564.56;4965603;28;20382;-48
2022/11/06 02:54:34;;;;;;;14.20;9.13;;;3.30;99.90;;;2.40;100.00;97561.09;4968538;28;20636;-47
2022/11/06 02:57:07;;;;;;;15.35;8.85;;;3.30;99.90;;;2.40;100.00;97553.28;4959280;28;20453;-47
2022/11/06 03:00:06;;;;;;;14.73;9.55;;;3.30;99.90;;;2.40;100.00;97548.09;4964693;28;20524;-45
2022/11/06 03:02:40;;;;;;;17.65;10.93;;;3.30;99.90;;;2.44;100.00;97534.19;4966915;28;20129;-46
2022/11/06 03:05:19;;;;;;;17.45;10.88;;;3.30;99.90;;;2.42;100.00;97525.50;4964538;28;20093;-47
2022/11/06 03:08:35;;;;;;;21.45;11.52;;;3.30;99.90;;;2.42;100.00;97530.72;4964133;28;20402;-49
2022/11/06 03:11:11;;;;;;;16.60;10.13;;;3.30;99.90;;;2.46;100.00;97527.25;4968824;28;20060;-47
2022/11/06 03:14:20;;;;;;;15.45;9.98;;;3.30;99.90;;;2.46;100.00;97533.31;4966467;28;20030;-45
2022/11/06 03:17:09;;;;;;;16.45;10.73;;;3.30;99.90;;;2.41;100.00;97524.66;4970424;28;20969;-45
2022/11/06 03:20:03;;;;;;;14.32;10.07;;;3.30;99.90;;;2.42;100.00;97531.59;4961308;28;20035;-49
2022/11/06 03:22:41;;;;;;;13.40;9.30;;;3.30;99.90;;;2.41;100.00;97524.66;4961223;28;20042;-47
2022/11/06 03:26:06;;;;;;;15.57;9.82;;;3.20;99.90;;;2.35;100.00;97524.69;4964540;28;20510;-48
2022/11/06 03:28:41;;;;;;;13.32;9.13;;;3.20;99.90;;;2.35;100.00;97527.28;4967007;28;20042;-49
2022/11/06 03:31:12;;;;;;;11.93;8.43;;;3.20;99.90;;;2.31;100.00;97522.94;4965089;28;20026;-45
2022/11/06 03:33:47;;;;;;;13.35;8.93;;;3.10;99.90;;;2.29;100.00;97524.69;4964373;28;20045;-47
2022/11/06 03:36:31;;;;;;;14.63;9.00;;;3.10;99.90;;;2.28;100.00;97530.78;4962753;28;20030;-47
2022/11/06 03:39:26;;;;;;;12.68;9.52;;;3.20;99.90;;;2.22;100.00;97515.16;4964681;28;20046;-47
2022/11/06 03:42:09;;;;;;;14.90;8.80;;;3.10;99.90;;;2.26;100.00;97514.25;4959661;28;20030;-46
2022/11/06 03:44:42;;;;;;;13.43;8.77;;;3.10;99.90;;;2.33;100.00;97515.13;4979123;28;20306;-47
2022/11/06 03:47:20;;;;;;;12.13;8.27;;;3.20;99.90;;;2.33;100.00;97509.91;4961894;28;20034;-46
2022/11/06 03:49:53;;;;;;;12.05;8.57;;;3.20;99.90;;;2.32;100.00;97506.47;4962003;28;20030;-46
2022/11/06 03:52:32;;;;;;;14.18;8.05;;;3.20;99.90;;;2.33;100.00;97504.72;4949259;28;20034;-46
2022/11/06 03:55:07;;;;;;;13.63;8.57;;;3.10;99.90;;;2.27;100.00;97498.66;4960095;28;20039;-49
2022/11/06 03:57:45;;;;;;;12.27;7.40;;;3.10;99.90;;;2.28;100.00;97502.16;4978584;28;20030;-46
2022/11/06 04:00:12;;;;;;;11.88;7.95;;;3.10;99.90;;;2.27;100.00;97501.25;4973191;28;23299;-46
2022/11/06 04:02:43;;;;;;;10.90;8.07;;;3.10;99.90;;;2.25;100.00;97502.13;4973985;28;20053;-47
2022/11/06 04:05:19;;;;;;;13.07;8.67;;;3.10;99.90;;;2.25;100.00;97497.78;4956209;28;20494;-46
2022/11/06 04:16:16;;;;;;;11.50;7.75;;;3.10;99.90;;;2.20;100.00;97470.91;4953873;28;20053;-47
2022/11/06 04:18:41;;;;;;;14.73;8.93;;;3.10;99.90;;;2.23;100.00;97481.31;4954971;28;20105;-46
2022/11/06 04:21:31;;;;;;;17.55;10.15;;;3.10;99.90;;;2.21;100.00;97479.59;4961799;28;20068;-47
2022/11/06 04:27:52;;;;;;;13.45;8.32;;;3.10;99.90;;;2.19;100.00;97473.50;4967927;28;20510;-47
2022/11/06 04:30:18;;;;;;;12.65;8.30;;;3.10;99.90;;;2.19;100.00;97470.91;4959206;28;20042;-46
2022/11/06 04:33:37;;;;;;;13.65;8.55;;;3.10;99.90;;;2.15;100.00;97466.59;4954567;28;20027;-46
2022/11/06 04:36:43;;;;;;;10.73;8.15;;;3.00;99.90;;;2.14;100.00;97465.75;4957044;28;20411;-47
2022/11/06 04:39:35;;;;;;;11.90;7.25;;;3.00;99.90;;;2.09;100.00;97454.47;4955927;28;20138;-47
2022/11/06 04:42:27;;;;;;;11.23;7.35;;;3.00;99.90;;;1.94;100.00;97434.56;4958796;28;20034;-48
2022/11/06 04:45:01;;;;;;;10.73;7.60;;;2.90;99.90;;;2.08;100.00;97461.41;4960485;28;20498;-46
2022/11/06 04:47:28;;;;;;;10.00;6.93;;;2.90;99.90;;;2.04;100.00;97446.66;4976288;28;20031;-46
2022/11/06 04:49:58;;;;;;;10.50;7.55;;;2.90;99.90;;;2.04;100.00;97456.22;4953641;28;20045;-48
2022/11/06 04:52:27;;;;;;;11.88;7.88;;;2.80;99.90;;;2.01;100.00;97456.22;4960675;28;20054;-48
2022/11/06 04:54:55;;;;;;;11.73;7.63;;;2.90;99.90;;;1.97;100.00;97446.69;4973474;28;20042;-48
2022/11/06 04:57:25;;;;;;;10.45;7.53;;;2.80;99.90;;;1.93;100.00;97432.81;4958389;28;20053;-48
2022/11/06 04:59:51;;;;;;;12.05;7.88;;;2.80;99.90;;;1.88;100.00;97437.16;4961879;28;20066;-46
2022/11/06 05:02:17;;;;;;;9.15;7.15;;;2.70;99.90;;;1.79;100.00;97424.19;4961152;28;20526;-47
2022/11/06 05:04:44;;;;;;;10.68;7.13;;;2.70;99.90;;;1.80;100.00;97446.72;4965785;28;20031;-48
2022/11/06 05:07:13;;;;;;;9.90;7.03;;;2.60;99.90;;;1.76;100.00;97452.78;4963254;28;20387;-48
2022/11/06 05:09:39;;;;;;;10.38;7.47;;;2.60;99.90;;;1.72;100.00;97454.53;4959715;28;20027;-46
2022/11/06 05:12:05;;;;;;;11.75;7.25;;;2.60;99.90;;;1.70;100.00;97461.47;4954936;28;20491;-46
2022/11/06 05:14:32;;;;;;;13.63;7.60;;;2.50;99.90;;;1.69;100.00;97476.22;4959172;28;20039;-46
2022/11/06 05:16:58;;;;;;;11.88;7.45;;;2.50;99.90;;;1.66;100.00;97475.34;4963862;28;20226;-45
2022/11/06 05:19:23;;;;;;;11.32;7.75;;;2.50;99.90;;;1.64;100.00;97482.28;4966067;28;20416;-47
2022/11/06 05:24:33;;;;;;;10.88;7.07;;;2.50;99.90;;;1.60;100.00;97471.00;4962493;28;20123;-47
2022/11/06 05:26:59;;;;;;;10.18;7.47;;;2.40;99.90;;;1.55;100.00;97462.34;4963182;28;20027;-47
2022/11/06 05:29:24;;;;;;;9.35;6.93;;;2.50;99.90;;;1.53;100.00;97469.28;4961518;28;20038;-48
2022/11/06 05:31:50;;;;;;;11.95;6.80;;;2.40;99.90;;;1.32;100.00;97449.34;4960481;28;20639;-47
2022/11/06 05:34:16;;;;;;;10.40;7.05;;;2.40;99.90;;;1.49;100.00;97484.00;4964958;28;20088;-48
2022/11/06 05:36:41;;;;;;;10.00;7.03;;;2.40;99.90;;;1.49;100.00;97484.00;4967070;28;20049;-46
2022/11/06 05:39:07;;;;;;;10.70;7.15;;;2.40;99.90;;;1.53;100.00;97490.06;4963775;28;20038;-47
2022/11/06 05:41:33;;;;;;;9.02;7.13;;;2.40;99.90;;;1.51;100.00;97471.03;4960725;28;20161;-45
2022/11/06 05:43:59;;;;;;;11.90;8.00;;;2.40;99.90;;;1.55;100.00;97454.56;4961653;28;20023;-46
2022/11/06 05:46:24;;;;;;;9.70;6.85;;;2.40;99.90;;;1.54;100.00;97450.19;4963048;28;20045;-47
2022/11/06 05:48:50;;;;;;;10.25;7.00;;;2.50;99.90;;;1.60;100.00;97452.81;4955074;28;20423;-47
2022/11/06 05:51:16;;;;;;;11.38;7.72;;;2.50;99.90;;;1.63;100.00;97459.72;4965238;28;20502;-47
2022/11/06 05:53:42;;;;;;;10.93;7.30;;;2.50;99.90;;;1.61;100.00;97453.69;4967837;28;20062;-46
2022/11/06 05:56:07;;;;;;;10.27;6.97;;;2.50;99.90;;;1.60;100.00;97450.22;4967272;28;20490;-47
2022/11/06 05:58:33;;;;;;;10.60;7.55;;;2.50;99.90;;;1.57;100.00;97464.94;4967879;28;20062;-49
2022/11/06 06:00:59;;;;;;;11.73;6.90;;;2.50;99.90;;;1.56;100.00;97474.47;4963494;28;20061;-44
2022/11/06 06:03:25;;;;;;;9.63;6.95;;;2.40;99.90;;;1.53;100.00;97479.69;4959211;28;20057;-45
2022/11/06 06:05:51;;;;;;;9.00;6.82;;;2.40;99.90;;;1.46;100.00;97470.16;4953204;28;20108;-46
2022/11/06 06:08:17;;;;;;;11.48;7.18;;;2.40;99.90;;;1.48;100.00;97473.59;4958113;28;20058;-49
2022/11/06 06:10:45;;;;;;;8.98;6.45;;;2.40;99.90;;;1.47;100.00;97464.06;4964117;28;20293;-51
2022/11/06 06:13:11;;;;;;;10.40;6.82;;;2.40;99.90;;;1.46;100.00;97460.59;4966824;28;20491;-49
2022/11/06 06:15:38;;;;;;;9.57;6.90;;;2.40;99.90;;;1.46;100.00;97467.56;4974510;28;20125;-47
2022/11/06 06:18:05;;;;;;;12.30;7.00;;;2.40;99.90;;;1.48;100.00;97484.88;4961964;28;20560;-46
2022/11/06 06:20:31;;;;;;;8.93;6.28;;;2.40;99.90;;;1.44;100.00;97483.13;4963842;28;20118;-46
2022/11/06 06:22:58;;;;;;;10.30;6.93;;;2.40;99.90;;;1.46;100.00;97475.34;4965131;28;20039;-47
2022/11/06 06:25:25;;;;;;;9.45;6.63;;;2.30;99.90;;;1.48;100.00;97471.00;4966044;28;20475;-49
2022/11/06 06:27:52;;;;;;;11.57;6.60;;;2.40;99.90;;;1.44;100.00;97471.88;4968110;28;20090;-47
2022/11/06 06:30:19;;;;;;;12.57;7.32;;;2.30;99.90;;;1.41;100.00;97462.34;4967260;28;20437;-47
2022/11/06 06:32:45;;;;;;;13.18;8.13;;;2.30;99.90;;;1.35;100.00;97441.56;4962638;28;20043;-46
2022/11/06 06:35:11;;;;;;;14.63;8.13;;;2.40;99.90;;;1.46;100.00;97444.16;4965703;28;20058;-46
2022/11/06 06:37:37;;;;;;;10.63;7.57;;;2.40;99.90;;;1.45;100.00;97443.28;4967106;28;20054;-46
2022/11/06 06:40:03;;;;;;;12.00;7.85;;;2.40;99.90;;;1.49;100.00;97450.22;4965897;28;20034;-49
2022/11/06 06:42:30;;;;;;;12.07;7.40;;;2.40;99.90;;;1.52;100.00;97458.00;4962754;28;20039;-49
2022/11/06 06:44:56;;;;;;;10.38;7.50;;;2.40;99.90;;;1.50;100.00;97445.88;4959697;28;20085;-47
2022/11/06 06:47:22;;;;;;;12.05;7.32;;;2.50;99.90;;;1.57;100.00;97459.75;4965718;28;20393;-49
2022/11/06 06:49:48;;;;;;;11.50;7.63;;;2.50;99.90;;;1.59;100.00;97442.41;4961643;28;20030;-47
2022/11/06 06:52:14;;;;;;;11.65;7.60;;;2.50;99.90;;;1.61;100.00;97431.13;4964957;28;20545;-47
2022/11/06 06:54:40;;;;;;;13.07;7.53;;;2.50;99.90;;;1.62;100.00;97425.09;4967592;28;20037;-45
2022/11/06 06:57:07;;;;;;;11.95;7.50;;;2.50;99.90;;;1.64;100.00;97423.34;4962367;28;20230;-47
2022/11/06 06:59:33;;;;;;;9.85;7.22;;;2.60;99.90;;;1.52;100.00;97394.75;4962974;28;20345;-46
2022/11/06 07:01:59;;;;;;;10.90;7.50;;;2.60;99.90;;;1.73;100.00;97421.63;4959042;28;20077;-50
2022/11/06 07:04:25;;;;;;;11.48;7.88;;;2.70;99.90;;;1.81;100.00;97422.44;4967162;28;20475;-47
2022/11/06 07:06:53;;;;;;;11.35;7.53;;;2.70;99.90;;;1.86;100.00;97412.91;4965810;28;20031;-47
2022/11/06 07:09:21;;;;;;;9.85;6.90;;;2.70;99.90;;;1.95;100.00;97412.03;4967723;28;20026;-51
2022/11/06 07:11:46;;;;;;;11.07;7.53;;;2.80;99.90;;;2.01;100.00;97404.19;4964694;28;20177;-49
2022/11/06 07:14:12;;;;;;;12.50;8.10;;;2.90;99.90;;;2.06;100.00;97402.44;4962665;28;20490;-51
2022/11/06 07:16:38;;;;;;;17.08;9.25;;;3.00;99.90;;;2.16;100.00;97401.53;4996449;23;20038;-63
2022/11/06 07:19:04;;;;;;;13.40;9.07;;;3.00;99.90;;;2.23;100.00;97400.66;4989302;28;20038;-63
2022/11/06 07:21:29;;;;;;;13.43;9.40;;;3.10;99.90;;;2.28;100.00;97390.25;4989847;28;20029;-63
2022/11/06 07:23:55;;;;;;;13.27;8.75;;;3.20;99.90;;;2.29;100.00;97385.00;4983279;28;24122;-63
2022/11/06 07:26:21;;;;;;;13.10;8.30;;;3.20;99.90;;;2.33;100.00;97380.66;4985609;28;20034;-63
2022/11/06 07:28:46;;;;;;;11.85;8.15;;;3.20;99.90;;;2.35;100.00;97376.31;4983405;28;20177;-64
2022/11/06 07:31:12;;;;;;;13.90;7.90;;;3.20;99.90;;;2.37;100.00;97371.09;4984140;28;20041;-64
2022/11/06 07:33:38;;;;;;;9.93;7.38;;;3.20;99.90;;;2.36;100.00;97372.84;4983490;28;20040;-64
2022/11/06 07:36:10;;;;;;;10.88;7.22;;;3.20;99.90;;;2.40;100.00;97374.53;4989649;28;20443;-64
2022/11/06 07:38:37;;;;;;;11.73;7.70;;;3.20;99.90;;;2.45;100.00;97374.53;4989097;28;20196;-64
2022/11/06 07:41:07;;;;;;;11.45;7.50;;;3.30;99.90;;;2.47;100.00;97371.03;4985704;28;20033;-64
2022/11/06 07:43:33;;;;;;;10.88;7.43;;;3.30;99.90;;;2.49;100.00;97360.63;4988506;28;20021;-64
2022/11/06 07:46:01;;;;;;;12.43;7.60;;;3.40;99.90;;;2.53;100.00;97353.66;4988475;28;20026;-64
2022/11/06 07:48:28;;;;;;;14.38;7.78;;;3.40;99.90;;;2.57;100.00;97350.19;4982317;28;20038;-64
2022/11/06 07:50:54;;;;;;;11.95;7.60;;;3.40;99.90;;;2.62;100.00;97346.66;4988295;28;20053;-65
2022/11/06 07:53:19;;;;;;;10.75;7.18;;;3.50;99.90;;;2.62;100.00;97331.03;4992434;28;20188;-64
2022/11/06 07:55:51;;;;;;;12.93;7.78;;;3.50;99.90;;;2.73;100.00;97336.19;4991230;28;20073;-64
2022/11/06 07:58:17;;;;;;;11.68;7.95;;;3.60;99.90;;;2.78;100.00;97329.22;4982137;28;20071;-65
2022/11/06 08:00:48;;;;;;;11.43;7.88;;;3.70;99.90;;;2.83;100.00;97322.19;4986600;28;20049;-64
2022/11/06 08:03:14;;;;;;;12.35;8.80;;;3.70;99.90;;;2.89;100.00;97312.59;4982341;28;20034;-65
2022/11/06 08:05:40;;;;;;;13.60;8.30;;;3.80;99.90;;;2.92;100.00;97315.19;4985722;28;20033;-65
2022/11/06 08:08:06;;;;;;;12.93;8.82;;;3.80;99.90;;;3.02;100.00;97314.25;4985154;28;20049;-64
2022/11/06 08:10:32;;;;;;;14.02;9.30;;;3.90;99.90;;;3.04;100.00;97317.72;4989960;28;20371;-64
2022/11/06 08:13:01;;;;;;;16.88;8.70;;;3.90;99.90;;;3.06;100.00;97305.53;4989569;28;20070;-64
2022/11/06 08:15:26;;;;;;;14.50;8.73;;;3.90;99.90;;;3.11;100.00;97313.31;4997876;28;20061;-64
2022/11/06 08:17:52;;;;;;;12.73;8.48;;;4.00;99.90;;;3.14;100.00;97308.94;4997588;28;20030;-64
2022/11/06 08:20:18;;;;;;;13.68;8.75;;;4.00;99.90;;;3.14;100.00;97295.03;4999575;28;20041;-64
2022/11/06 08:22:44;;;;;;;13.30;8.75;;;4.00;99.90;;;3.19;100.00;97286.28;4992935;28;20442;-64
2022/11/06 08:25:10;;;;;;;13.85;8.95;;;4.00;99.90;;;3.19;100.00;97299.31;4990175;28;20445;-64
2022/11/06 08:27:36;;;;;;;13.18;8.43;;;4.10;99.90;;;3.26;100.00;97302.75;4995044;28;20061;-64
2022/11/06 08:30:03;;;;;;;12.02;8.10;;;4.10;99.90;;;3.34;100.00;97307.88;4994032;28;20079;-64
2022/11/06 08:32:29;;;;;;;11.38;8.05;;;4.20;99.90;;;3.39;100.00;97314.78;4994129;28;20037;-64
2022/11/06 08:34:55;;;;;;;13.43;8.77;;;4.20;99.90;;;3.41;100.00;97306.94;4986490;28;20563;-64
2022/11/06 08:37:21;;;;;;;12.88;8.95;;;4.30;99.90;;;3.50;100.00;97311.19;4994245;28;20329;-64
2022/11/06 08:39:46;;;;;;;13.85;9.52;;;4.30;99.90;;;3.53;100.00;97312.03;4991855;28;20505;-64
2022/11/06 08:42:12;;;;;;;15.98;9.85;;;4.40;99.90;;;3.52;100.00;97312.06;4994479;28;20045;-64
2022/11/06 08:44:38;;;;;;;13.73;9.15;;;4.40;99.90;;;3.59;100.00;97311.13;4984751;28;20472;-64
2022/11/06 08:47:04;;;;;;;16.42;9.35;;;4.50;99.90;;;3.60;100.00;97300.66;4998616;28;20030;-64
2022/11/06 08:49:30;;;;;;;14.00;8.90;;;4.50;99.90;;;3.65;100.00;97304.97;4994385;28;20038;-64
2022/11/06 08:51:56;;;;;;;13.23;8.63;;;4.50;99.90;;;3.71;100.00;97299.66;4998387;28;20041;-64
2022/11/06 08:54:21;;;;;;;11.80;7.60;;;4.60;99.90;;;3.76;100.00;97301.34;4995771;28;20763;-64
2022/11/06 08:56:47;;;;;;;10.95;7.95;;;4.60;99.90;;;3.81;100.00;97303.91;4996603;28;20184;-64
2022/11/06 08:59:13;;;;;;;13.57;7.60;;;4.60;99.90;;;3.86;100.00;97296.91;4995742;28;20197;-64
2022/11/06 09:01:39;;;;;;;12.02;8.18;;;4.70;99.90;;;3.88;100.00;97289.91;4997821;28;20497;-65
2022/11/06 09:04:05;;;;;;;13.73;8.52;;;4.70;99.90;;;3.90;100.00;97287.28;4990166;28;20067;-64
2022/11/06 09:06:30;;;;;;;12.13;7.97;;;4.70;99.90;;;3.99;100.00;97298.47;4991618;28;20034;-64
2022/11/06 09:08:56;;;;;;;12.73;7.93;;;4.80;99.90;;;4.03;100.00;97295.81;4989683;28;20145;-64
2022/11/06 09:11:22;;;;;;;12.10;8.07;;;4.90;99.90;;;4.11;100.00;97293.97;4994523;28;20033;-64
2022/11/06 09:13:47;;;;;;;13.80;8.27;;;4.90;99.90;;;4.18;100.00;97288.66;4994553;28;20494;-65
2022/11/06 09:16:13;;;;;;;11.60;8.10;;;5.00;99.90;;;4.24;100.00;97297.31;4992153;28;20386;-65
2022/11/06 09:18:39;;;;;;;13.30;7.63;;;5.10;99.90;;;4.36;100.00;97291.88;4979606;28;20030;-65
2022/11/06 09:21:05;;;;;;;13.52;8.50;;;5.10;99.90;;;4.38;100.00;97295.38;4994497;28;20065;-65
2022/11/06 09:23:30;;;;;;;12.63;7.70;;;5.20;99.90;;;4.53;100.00;97292.50;4990067;28;20033;-65
2022/11/06 09:25:57;;;;;;;16.38;8.20;;;5.30;99.90;;;4.45;100.00;97285.66;4991077;28;20225;-65
2022/11/06 09:28:23;;;;;;;13.68;7.82;;;5.40;99.90;;;4.67;100.00;97331.50;4985690;28;22181;-65
2022/11/06 09:30:49;;;;;;;12.82;8.10;;;5.40;99.90;;;4.68;100.00;97328.00;4993132;28;20033;-65
2022/11/06 09:33:14;;;;;;;11.65;7.55;;;5.50;99.90;;;4.83;100.00;97337.38;4988877;28;20378;-65
2022/11/06 09:35:40;;;;;;;14.30;8.40;;;5.60;99.90;;;4.89;100.00;97318.97;4996724;28;20036;-65
2022/11/06 09:38:10;;;;;;;12.02;7.68;;;5.70;99.90;;;5.03;100.00;97310.06;4996120;28;20500;-65
2022/11/06 09:40:50;;;;;;;11.50;7.80;;;5.80;99.90;;;5.14;100.00;97306.38;4990432;28;20040;-65
2022/11/06 09:43:31;;;;;;;13.35;7.40;;;5.90;99.90;;;5.28;100.00;97293.06;4988935;28;20069;-65
2022/11/06 09:46:15;;;;;;;10.15;7.13;;;6.00;99.90;;;5.39;100.00;97305.94;4989800;28;20267;-65
2022/11/06 09:48:46;;;;;;;13.32;7.90;;;6.10;99.90;;;5.49;100.00;97299.66;4993678;28;20117;-65
2022/11/06 09:51:33;;;;;;;9.35;6.70;;;6.30;99.90;;;5.63;100.00;97288.06;4997515;28;20292;-65
2022/11/06 09:54:10;;;;;;;9.00;6.13;;;6.30;99.90;;;5.74;100.00;97280.88;4994089;28;20525;-65
2022/11/06 09:56:39;;;;;;;7.60;6.30;;;6.50;99.90;;;5.82;100.00;97275.50;4974928;28;20368;-64
2022/11/06 09:59:11;;;;;;;10.30;6.85;;;6.50;99.90;;;5.88;100.00;97263.13;4990562;28;20108;-64
2022/11/06 10:01:57;;;;;;;9.30;6.68;;;6.60;99.90;;;5.99;100.00;97254.25;4987224;28;20429;-64
2022/11/06 10:04:45;;;;;;;10.63;7.30;;;6.70;99.90;;;6.04;100.00;97252.38;4985307;28;20065;-65
2022/11/06 10:07:27;;;;;;;8.35;6.10;;;6.70;99.90;;;6.10;100.00;97249.63;4987622;28;20026;-65
2022/11/06 10:09:53;;;;;;;7.43;5.95;;;6.80;99.90;;;6.18;100.00;97247.72;5009113;28;22459;-65
2022/11/06 10:12:46;;;;;;;10.48;6.60;;;6.90;99.90;;;6.29;100.00;97248.34;4985371;28;20316;-64
2022/11/06 10:15:21;;;;;;;9.90;7.07;;;7.00;99.90;;;6.33;100.00;97249.13;4985978;28;20033;-63
2022/11/06 10:18:21;;;;;;;9.50;6.47;;;7.10;99.90;;;6.44;100.00;97247.16;4989985;28;20064;-64
2022/11/06 10:20:53;;;;;;;9.00;6.03;;;7.20;99.90;;;6.49;100.00;97241.78;4992680;28;20038;-64
2022/11/06 10:23:33;;;;;;;8.02;5.65;;;7.30;99.90;;;6.59;100.00;97234.59;4996542;28;20026;-64
2022/11/06 10:26:40;;;;;;;8.38;5.82;;;7.30;99.90;;;6.68;100.00;97221.25;4993581;28;20120;-64
2022/11/06 10:29:34;;;;;;;7.82;5.53;;;7.40;99.90;;;6.79;100.00;97214.00;4985212;28;20038;-64
2022/11/06 10:32:37;;;;;;;9.52;6.18;;;7.50;99.90;;;6.90;100.00;97213.72;4990785;28;20034;-63
2022/11/06 10:35:16;;;;;;;7.82;5.45;;;7.60;99.90;;;6.96;100.00;97202.22;4995321;28;20041;-63
2022/11/06 10:38:03;;;;;;;8.27;5.70;;;7.80;99.90;;;7.07;100.00;97201.03;4991547;28;20449;-64
2022/11/06 10:40:32;;;;;;;9.88;5.50;;;7.90;99.90;;;7.23;100.00;97192.75;4986150;28;20172;-64
2022/11/06 10:43:20;;;;;;;8.55;5.90;;;8.00;99.90;;;7.31;100.00;97196.03;4991234;28;20134;-64
2022/11/06 10:45:52;;;;;;;8.55;5.63;;;8.10;99.90;;;7.43;100.00;97187.84;4993907;28;20065;-64
2022/11/06 10:48:30;;;;;;;7.38;5.15;;;8.20;99.90;;;7.50;100.00;97183.28;4990421;28;20160;-64
2022/11/06 10:51:19;;;;;;;7.72;5.50;;;8.30;99.90;;;7.60;100.00;97176.00;4989419;28;20029;-64
2022/11/06 10:54:16;;;;;;;7.65;5.03;;;8.40;99.90;;;7.70;100.00;97174.84;4985155;28;20065;-64
2022/11/06 10:57:19;;;;;;;11.68;5.88;;;8.50;99.90;;;7.79;100.00;97164.06;4987392;28;20033;-64
2022/11/06 10:59:44;;;;;;;6.30;4.78;;;8.50;99.90;;;7.84;100.00;97169.16;4988849;28;20034;-64